Time;durP1;ratioP1;P1;durP2;ratioP2;P2;SDS_P1;SDS_P2;PMS_P1;PMS_P2;Temp;Humidity;BMP_temperature;BMP_pressure;BME280_temperature;BME280_humidity;BME280_pressure;Samples;Min_cycle;Max_cycle;Signal;HPM_P1;HPM_P2
2023/09/06 00:02:22;;;;;;;7.90;5.95;;;14.30;96.70;;;;;;4958375;29;20227;-95
2023/09/06 00:04:49;;;;;;;7.68;5.93;;;14.20;96.70;;;;;;4957155;29;20205;-95
2023/09/06 00:10:02;;;;;;;9.43;6.20;;;14.20;96.70;;;;;;4945526;29;20233;-94
2023/09/06 00:12:31;;;;;;;8.82;5.45;;;14.20;96.70;;;;;;4959190;28;20205;-95
2023/09/06 00:15:18;;;;;;;5.88;5.13;;;14.10;97.00;;;;;;4936795;29;20241;-95
2023/09/06 00:20:47;;;;;;;6.28;5.68;;;14.00;97.40;;;;;;4940708;28;20233;-95
2023/09/06 00:25:59;;;;;;;7.72;5.55;;;14.00;97.80;;;;;;4923395;28;20292;-95
2023/09/06 00:28:26;;;;;;;6.72;5.80;;;14.10;97.70;;;;;;4952872;28;20237;-95
2023/09/06 00:33:35;;;;;;;6.97;5.47;;;14.10;97.30;;;;;;4934493;29;20295;-95
2023/09/06 00:36:06;;;;;;;8.05;5.43;;;14.10;97.60;;;;;;4956575;28;20224;-94
2023/09/06 00:38:53;;;;;;;6.28;5.47;;;14.10;97.50;;;;;;4947061;29;20542;-95
2023/09/06 00:41:23;;;;;;;8.57;5.80;;;14.00;97.70;;;;;;4960922;28;20209;-95
2023/09/06 00:43:50;;;;;;;6.18;5.32;;;13.90;97.90;;;;;;4953549;29;20201;-95
2023/09/06 00:46:18;;;;;;;7.72;4.97;;;13.80;98.30;;;;;;4962186;28;20209;-95
2023/09/06 00:51:30;;;;;;;6.32;5.65;;;13.80;98.20;;;;;;4952581;28;20581;-95
2023/09/06 00:56:39;;;;;;;7.90;5.80;;;13.60;98.70;;;;;;4942153;29;20237;-96
2023/09/06 00:59:10;;;;;;;7.85;6.13;;;13.50;99.20;;;;;;4955961;28;20208;-95
2023/09/06 01:01:39;;;;;;;7.22;5.97;;;13.40;99.70;;;;;;4955231;29;20197;-95
2023/09/06 01:04:06;;;;;;;7.90;5.38;;;13.40;99.60;;;;;;4962041;28;20229;-95
2023/09/06 01:06:38;;;;;;;7.30;6.07;;;13.30;99.90;;;;;;4954642;28;20216;-95
2023/09/06 01:12:09;;;;;;;8.93;6.32;;;13.20;99.90;;;;;;4949986;28;20212;-95
2023/09/06 01:17:20;;;;;;;8.65;5.93;;;13.20;99.90;;;;;;4930117;28;20205;-95
2023/09/06 01:19:52;;;;;;;8.93;6.38;;;13.20;99.90;;;;;;4975433;28;20196;-94
2023/09/06 01:28:15;;;;;;;7.13;6.32;;;13.30;99.90;;;;;;4922155;29;20221;-95
2023/09/06 01:30:42;;;;;;;8.20;6.10;;;13.30;99.90;;;;;;4962657;28;20301;-95
2023/09/06 01:33:10;;;;;;;7.60;6.18;;;13.30;99.90;;;;;;4953678;28;20285;-95
2023/09/06 01:35:37;;;;;;;6.97;6.28;;;13.30;99.90;;;;;;4956033;28;20209;-95
2023/09/06 01:38:04;;;;;;;9.05;6.30;;;13.20;99.90;;;;;;4959441;28;20213;-94
2023/09/06 01:40:32;;;;;;;9.13;5.95;;;13.20;99.90;;;;;;4960128;28;20204;-95
2023/09/06 01:42:59;;;;;;;6.85;6.10;;;13.20;99.90;;;;;;4957673;28;20212;-95
2023/09/06 01:45:27;;;;;;;7.63;6.13;;;13.30;99.90;;;;;;4951500;28;20236;-95
2023/09/06 01:48:13;;;;;;;9.00;6.25;;;13.30;99.90;;;;;;4940138;28;20205;-95
2023/09/06 01:50:43;;;;;;;8.75;6.47;;;13.30;99.90;;;;;;4957721;28;20232;-95
2023/09/06 01:53:13;;;;;;;6.90;6.15;;;13.20;99.90;;;;;;4951681;29;20216;-95
2023/09/06 01:58:32;;;;;;;6.45;5.75;;;13.20;99.90;;;;;;4941069;28;20208;-94
2023/09/06 02:01:14;;;;;;;8.30;5.65;;;13.20;99.90;;;;;;4940165;29;20212;-96
2023/09/06 02:03:42;;;;;;;6.32;5.70;;;13.20;99.90;;;;;;4930884;29;20676;-95
2023/09/06 02:06:09;;;;;;;6.78;5.50;;;13.20;99.90;;;;;;4939759;29;20212;-96
2023/09/06 02:08:39;;;;;;;6.80;6.03;;;13.20;99.90;;;;;;4930734;29;20205;-95
2023/09/06 02:11:08;;;;;;;8.93;5.72;;;13.20;99.90;;;;;;4952196;29;20210;-95
2023/09/06 02:13:56;;;;;;;9.57;5.70;;;13.20;99.90;;;;;;4921941;29;20209;-95
2023/09/06 02:16:23;;;;;;;7.72;6.07;;;13.10;99.90;;;;;;4952465;29;20201;-96
2023/09/06 02:21:34;;;;;;;8.30;6.22;;;12.90;99.90;;;;;;4945159;28;20251;-95
2023/09/06 02:24:19;;;;;;;8.75;5.93;;;12.80;99.90;;;;;;4949209;28;20217;-95
2023/09/06 02:26:47;;;;;;;7.28;6.15;;;12.70;99.90;;;;;;4951184;28;20726;-95
2023/09/06 02:29:15;;;;;;;9.25;7.40;;;12.60;99.90;;;;;;4930347;28;20225;-96
2023/09/06 02:31:44;;;;;;;7.95;6.47;;;12.60;99.90;;;;;;4938952;29;20206;-95
2023/09/06 02:34:11;;;;;;;7.97;6.72;;;12.50;99.90;;;;;;4954475;29;20216;-95
2023/09/06 02:36:38;;;;;;;9.32;6.70;;;12.50;99.90;;;;;;4954335;29;20205;-93
2023/09/06 02:41:49;;;;;;;7.63;6.55;;;12.50;99.90;;;;;;4945296;28;20572;-94
2023/09/06 02:44:36;;;;;;;9.57;6.78;;;12.60;99.90;;;;;;4945404;29;20265;-95
2023/09/06 02:47:09;;;;;;;8.13;6.35;;;12.50;99.90;;;;;;4947381;28;20211;-94
2023/09/06 02:49:38;;;;;;;7.68;6.28;;;12.50;99.90;;;;;;4958652;29;20266;-94
2023/09/06 02:52:29;;;;;;;7.47;6.65;;;12.40;99.90;;;;;;4935390;28;20298;-95
2023/09/06 02:54:57;;;;;;;10.57;6.28;;;12.40;99.90;;;;;;4948790;29;20204;-94
2023/09/06 03:08:19;;;;;;;8.55;6.93;;;12.40;99.90;;;;;;4935601;29;20202;-95
2023/09/06 03:10:46;;;;;;;8.68;6.32;;;12.50;99.90;;;;;;4936100;29;20252;-92
2023/09/06 03:15:59;;;;;;;8.70;6.20;;;12.40;99.90;;;;;;4960768;28;20244;-95
2023/09/06 03:18:28;;;;;;;7.40;5.95;;;12.40;99.90;;;;;;4953427;28;20197;-95
2023/09/06 03:20:55;;;;;;;9.32;6.43;;;12.30;99.90;;;;;;4954905;28;20205;-95
2023/09/06 03:23:23;;;;;;;7.53;6.55;;;12.30;99.90;;;;;;4956255;28;20209;-96
2023/09/06 03:26:09;;;;;;;7.13;6.40;;;12.20;99.90;;;;;;4926854;29;20557;-95
2023/09/06 03:31:18;;;;;;;8.15;6.03;;;12.20;99.90;;;;;;4951670;29;20308;-95
2023/09/06 03:33:45;;;;;;;7.63;6.00;;;12.10;99.90;;;;;;4962550;28;20205;-95
2023/09/06 03:36:14;;;;;;;8.07;6.22;;;12.20;99.90;;;;;;4960330;28;20228;-95
2023/09/06 03:41:22;;;;;;;8.73;5.97;;;12.10;99.90;;;;;;4954240;28;20209;-94
2023/09/06 03:46:34;;;;;;;8.00;6.38;;;12.00;99.90;;;;;;4935858;28;20209;-95
2023/09/06 03:51:42;;;;;;;7.15;5.95;;;12.00;99.90;;;;;;4949986;28;20307;-95
2023/09/06 03:54:09;;;;;;;7.43;5.65;;;12.00;99.90;;;;;;4950531;29;20261;-95
2023/09/06 03:56:38;;;;;;;6.30;5.70;;;12.00;99.90;;;;;;4947214;29;20205;-95
2023/09/06 04:01:47;;;;;;;7.50;5.70;;;12.00;99.90;;;;;;4922509;28;20220;-94
2023/09/06 04:04:14;;;;;;;7.85;5.70;;;11.90;99.90;;;;;;4956325;28;20204;-95
2023/09/06 04:06:43;;;;;;;6.65;5.57;;;11.90;99.90;;;;;;4953505;28;20197;-95
2023/09/06 04:09:13;;;;;;;6.78;6.07;;;11.90;99.90;;;;;;4948260;28;20568;-96
2023/09/06 04:12:01;;;;;;;9.60;6.43;;;11.90;99.90;;;;;;4928459;29;20236;-96
2023/09/06 04:17:33;;;;;;;6.80;6.05;;;11.90;99.90;;;;;;4949753;28;20692;-95
2023/09/06 04:20:18;;;;;;;8.90;5.97;;;11.80;99.90;;;;;;4952821;28;20205;-95
2023/09/06 04:22:45;;;;;;;8.80;6.13;;;11.80;99.90;;;;;;4950681;28;20201;-93
2023/09/06 04:25:12;;;;;;;9.68;6.00;;;11.70;99.90;;;;;;4958670;28;20619;-95
2023/09/06 04:33:03;;;;;;;6.97;6.28;;;11.60;99.90;;;;;;4940792;29;20214;-93
2023/09/06 04:38:16;;;;;;;7.20;6.10;;;11.70;99.90;;;;;;4923956;28;20237;-96
2023/09/06 04:43:25;;;;;;;7.65;6.10;;;11.60;99.90;;;;;;4937849;29;20205;-95
2023/09/06 04:48:36;;;;;;;6.90;6.05;;;11.60;99.90;;;;;;4941440;28;20205;-95
2023/09/06 04:51:04;;;;;;;9.82;5.93;;;11.50;99.90;;;;;;4934252;29;20272;-96
2023/09/06 04:53:33;;;;;;;6.50;5.75;;;11.50;99.90;;;;;;4955629;28;20200;-96
2023/09/06 04:56:03;;;;;;;8.38;6.38;;;11.40;99.90;;;;;;4959032;28;20201;-95
2023/09/06 04:58:33;;;;;;;6.88;5.65;;;11.40;99.90;;;;;;4951810;28;20209;-95
2023/09/06 05:03:49;;;;;;;9.95;6.40;;;11.40;99.90;;;;;;4953580;29;20361;-95
2023/09/06 05:06:17;;;;;;;9.82;5.85;;;11.50;99.90;;;;;;4951588;29;20208;-96
2023/09/06 05:11:25;;;;;;;7.13;6.00;;;11.60;99.90;;;;;;4947179;29;20233;-96
2023/09/06 05:16:35;;;;;;;7.38;5.30;;;11.60;99.90;;;;;;4933522;28;20206;-96
2023/09/06 05:19:02;;;;;;;7.97;5.82;;;11.70;99.90;;;;;;4937324;29;20217;-95
2023/09/06 05:21:29;;;;;;;8.52;5.80;;;11.80;99.90;;;;;;4947262;28;20214;-95
2023/09/06 05:23:56;;;;;;;8.43;5.82;;;11.80;99.90;;;;;;4958513;28;20209;-95
2023/09/06 05:26:23;;;;;;;7.82;5.70;;;11.80;99.90;;;;;;4962516;28;20593;-94
2023/09/06 05:28:50;;;;;;;6.90;6.00;;;11.80;99.90;;;;;;4954027;28;20217;-96
2023/09/06 05:31:18;;;;;;;7.00;6.30;;;11.80;99.90;;;;;;4964946;28;20277;-96
2023/09/06 05:33:47;;;;;;;7.85;6.50;;;11.80;99.90;;;;;;4939408;28;20239;-95
2023/09/06 05:36:14;;;;;;;10.05;6.13;;;11.80;99.90;;;;;;4947405;29;20205;-96
2023/09/06 05:38:41;;;;;;;7.10;6.15;;;11.90;99.90;;;;;;4958565;28;20650;-95
2023/09/06 05:41:08;;;;;;;8.40;6.25;;;11.90;99.90;;;;;;4964759;28;20209;-95
2023/09/06 05:43:35;;;;;;;7.95;6.20;;;12.00;99.90;;;;;;4951196;29;20213;-95
2023/09/06 05:46:03;;;;;;;7.88;6.47;;;12.10;99.90;;;;;;4940737;29;20209;-96
2023/09/06 05:48:30;;;;;;;9.52;6.40;;;12.20;99.90;;;;;;4957658;28;20213;-94
2023/09/06 05:50:58;;;;;;;8.20;6.78;;;12.20;99.90;;;;;;4950908;28;20228;-95
2023/09/06 05:53:26;;;;;;;8.43;6.88;;;12.30;99.90;;;;;;4926181;29;20722;-96
2023/09/06 05:55:53;;;;;;;8.10;6.82;;;12.40;99.90;;;;;;4929892;29;20284;-96
2023/09/06 05:58:20;;;;;;;9.32;6.88;;;12.50;99.90;;;;;;4954609;29;20202;-96
2023/09/06 06:00:49;;;;;;;8.30;7.20;;;12.60;99.90;;;;;;4951017;28;20217;-94
2023/09/06 06:03:19;;;;;;;9.05;6.72;;;12.70;99.90;;;;;;4962067;28;20193;-96
2023/09/06 06:08:46;;;;;;;7.00;6.03;;;13.00;99.90;;;;;;4933338;29;20576;-94
2023/09/06 06:11:13;;;;;;;10.55;7.20;;;13.10;99.90;;;;;;4952768;29;20224;-96
2023/09/06 06:13:40;;;;;;;8.35;6.82;;;13.20;99.90;;;;;;4958053;28;20199;-95
2023/09/06 06:19:29;;;;;;;12.68;7.30;;;13.50;99.90;;;;;;4967191;28;20278;-94
2023/09/06 06:24:38;;;;;;;12.30;6.78;;;13.80;99.90;;;;;;4943195;28;20328;-94
2023/09/06 06:27:07;;;;;;;9.55;7.10;;;13.90;99.90;;;;;;4957071;28;20202;-94
2023/09/06 06:29:35;;;;;;;8.30;7.22;;;14.00;99.90;;;;;;4963332;28;20205;-92
2023/09/06 06:32:02;;;;;;;8.75;7.28;;;14.10;99.90;;;;;;4953584;28;20236;-92
2023/09/06 06:34:29;;;;;;;9.38;7.07;;;14.20;99.90;;;;;;4956052;28;20212;-92
2023/09/06 06:39:38;;;;;;;10.45;6.68;;;14.50;99.00;;;;;;4941681;29;20292;-92
2023/09/06 06:42:06;;;;;;;8.23;7.38;;;14.60;99.30;;;;;;4967725;28;20207;-94
2023/09/06 06:44:33;;;;;;;8.88;7.10;;;14.60;99.50;;;;;;4973170;28;20204;-96
2023/09/06 07:19:11;;;;;;;8.15;6.00;;;15.80;97.70;;;;;;4999911;28;20195;-96
2023/09/06 07:27:57;;;;;;;7.88;6.13;;;16.10;97.20;;;;;;4946464;29;20213;-92
2023/09/06 07:30:50;;;;;;;8.65;6.35;;;16.20;97.20;;;;;;4998526;28;20238;-94
2023/09/06 07:33:38;;;;;;;9.25;6.28;;;16.30;96.60;;;;;;4988053;28;20223;-92
2023/09/06 07:39:22;;;;;;;7.53;5.95;;;16.50;96.60;;;;;;5048585;23;20227;-93
2023/09/06 07:41:52;;;;;;;7.45;6.25;;;16.70;97.10;;;;;;4988686;28;20196;-93
2023/09/06 07:44:19;;;;;;;11.25;6.25;;;16.80;96.10;;;;;;4995617;28;20255;-91
2023/09/06 07:54:40;;;;;;;7.07;6.18;;;17.50;93.90;;;;;;5176373;23;20814;-93
2023/09/06 07:57:26;;;;;;;6.47;5.70;;;17.50;93.90;;;;;;4957283;28;20224;-95
2023/09/06 07:59:55;;;;;;;21.83;17.92;;;17.50;93.40;;;;;;4977857;28;20204;-93
2023/09/06 08:02:24;;;;;;;11.52;8.93;;;17.50;93.20;;;;;;4972364;28;20201;-94
2023/09/06 08:05:10;;;;;;;11.60;6.50;;;17.80;92.80;;;;;;4959873;28;20213;-93
2023/09/06 08:07:38;;;;;;;7.75;5.90;;;17.80;93.00;;;;;;4972163;28;20212;-92
2023/09/06 08:10:09;;;;;;;9.07;5.85;;;17.80;93.30;;;;;;4971056;28;20231;-93
2023/09/06 08:12:36;;;;;;;6.95;5.80;;;17.90;92.60;;;;;;4969367;28;21152;-93
2023/09/06 08:15:04;;;;;;;6.78;5.65;;;18.00;92.50;;;;;;4975889;28;20200;-95
2023/09/06 08:17:33;;;;;;;13.63;10.13;;;18.10;92.30;;;;;;5009607;23;20271;-90
2023/09/06 08:19:59;;;;;;;7.80;6.05;;;18.20;92.40;;;;;;4993509;28;20196;-91
2023/09/06 08:22:26;;;;;;;7.25;6.55;;;18.20;92.90;;;;;;4987829;28;20200;-91
2023/09/06 08:24:53;;;;;;;7.10;6.38;;;18.30;92.40;;;;;;4985219;28;20200;-91
2023/09/06 08:27:20;;;;;;;10.25;7.38;;;18.40;92.30;;;;;;4984704;28;20200;-93
2023/09/06 08:29:47;;;;;;;8.25;5.75;;;18.50;91.70;;;;;;4979174;28;20252;-92
2023/09/06 08:32:14;;;;;;;9.60;6.30;;;18.50;91.90;;;;;;4981471;28;20225;-91
2023/09/06 08:37:23;;;;;;;7.40;5.82;;;18.70;90.90;;;;;;4988845;28;20200;-91
2023/09/06 08:39:50;;;;;;;7.13;5.50;;;18.90;90.90;;;;;;4963259;28;20201;-91
2023/09/06 08:42:21;;;;;;;6.82;5.82;;;19.00;90.70;;;;;;4992887;28;20204;-90
2023/09/06 08:44:50;;;;;;;7.97;6.20;;;19.10;90.00;;;;;;4980787;28;20200;-91
2023/09/06 08:53:07;;;;;;;6.70;5.45;;;19.80;88.70;;;;;;4982564;28;20228;-92
2023/09/06 08:55:34;;;;;;;6.55;5.20;;;20.10;85.90;;;;;;4984098;28;20192;-92
2023/09/06 08:58:03;;;;;;;7.10;5.05;;;20.40;81.10;;;;;;4970131;28;20254;-89
2023/09/06 09:00:31;;;;;;;7.07;4.97;;;20.80;81.30;;;;;;4989098;28;20204;-90
2023/09/06 09:02:59;;;;;;;5.50;4.90;;;21.30;75.20;;;;;;4988022;28;20210;-90
2023/09/06 09:05:27;;;;;;;4.95;4.38;;;21.60;74.40;;;;;;4997113;28;20653;-91
2023/09/06 09:08:04;;;;;;;5.97;4.00;;;22.90;55.70;;;;;;4989829;28;20641;-91
2023/09/06 09:13:49;;;;;;;5.93;4.30;;;27.10;22.80;;;;;;4984631;28;20204;-92
2023/09/06 09:18:58;;;;;;;5.80;4.47;;;29.40;16.30;;;;;;4989946;28;20228;-95
2023/09/06 09:24:12;;;;;;;6.95;4.35;;;29.50;15.40;;;;;;4989859;28;20200;-92
2023/09/06 09:26:41;;;;;;;5.03;4.53;;;30.60;12.50;;;;;;4987825;28;20672;-92
2023/09/06 09:31:54;;;;;;;4.72;4.30;;;31.80;10.50;;;;;;4981485;28;20303;-93
2023/09/06 09:43:45;;;;;;;5.65;4.05;;;31.90;9.00;;;;;;4915240;29;20232;-96
2023/09/06 10:07:17;;;;;;;5.20;4.80;;;31.80;8.00;;;;;;4958804;28;20286;-95
2023/09/06 10:12:54;;;;;;;4.43;4.13;;;30.90;10.50;;;;;;4985549;28;20243;-92
2023/09/06 10:15:23;;;;;;;4.82;4.38;;;31.00;10.20;;;;;;4978610;28;20192;-93
2023/09/06 10:29:09;;;;;;;5.57;5.00;;;29.60;14.80;;;;;;4981695;28;20704;-91
2023/09/06 10:38:10;;;;;;;5.70;5.15;;;29.60;15.80;;;;;;4989200;28;20838;-93
2023/09/06 10:41:15;;;;;;;7.55;5.70;;;28.60;15.90;;;;;;4990188;28;20206;-93
2023/09/06 10:44:03;;;;;;;8.25;5.68;;;27.70;19.40;;;;;;4978920;28;20542;-90
2023/09/06 10:46:31;;;;;;;10.38;5.32;;;27.30;19.90;;;;;;4995465;28;20214;-90
2023/09/06 10:49:19;;;;;;;7.25;5.60;;;27.80;16.70;;;;;;4986235;28;20203;-92
2023/09/06 10:54:47;;;;;;;6.47;5.05;;;27.40;20.20;;;;;;4967356;28;20232;-92
2023/09/06 11:03:21;;;;;;;11.27;5.55;;;28.10;18.40;;;;;;4979553;28;20196;-91
2023/09/06 11:21:00;;;;;;;7.65;5.40;;;26.40;20.80;;;;;;4976344;28;20263;-88
2023/09/06 11:23:27;;;;;;;7.07;5.40;;;26.10;22.40;;;;;;4974632;28;20212;-89
2023/09/06 11:25:58;;;;;;;7.40;4.85;;;25.70;27.40;;;;;;4974058;28;20650;-87
2023/09/06 11:29:08;;;;;;;5.28;4.78;;;25.40;25.40;;;;;;4972350;28;20205;-90
2023/09/06 11:31:36;;;;;;;5.45;4.95;;;25.40;24.00;;;;;;4978859;28;20204;-91
2023/09/06 11:37:30;;;;;;;6.32;4.55;;;25.60;22.60;;;;;;4980636;28;20238;-89
2023/09/06 11:40:12;;;;;;;6.88;5.43;;;25.70;21.00;;;;;;4974845;28;20200;-88
2023/09/06 11:42:52;;;;;;;5.75;5.15;;;25.60;22.20;;;;;;4971947;28;20200;-90
2023/09/06 11:45:20;;;;;;;6.10;4.43;;;25.60;21.50;;;;;;4961991;28;20299;-87
2023/09/06 11:47:47;;;;;;;6.15;4.70;;;25.30;23.90;;;;;;4975747;28;20636;-91
2023/09/06 11:50:19;;;;;;;6.93;4.72;;;25.30;21.80;;;;;;4969913;28;20251;-91
2023/09/06 11:55:45;;;;;;;5.28;3.97;;;25.30;23.20;;;;;;4967086;28;20208;-91
2023/09/06 12:01:01;;;;;;;6.07;4.40;;;25.10;23.10;;;;;;4961571;28;20288;-88
2023/09/06 12:03:35;;;;;;;6.88;4.50;;;25.10;22.50;;;;;;4957970;28;20201;-89
2023/09/06 12:08:46;;;;;;;4.93;4.43;;;25.30;23.40;;;;;;4964097;28;20209;-90
2023/09/06 12:14:44;;;;;;;5.75;4.38;;;25.40;22.30;;;;;;4965271;28;20189;-91
2023/09/06 12:23:30;;;;;;;6.57;4.60;;;25.50;23.40;;;;;;4959847;28;20216;-90
2023/09/06 12:29:09;;;;;;;4.97;4.47;;;25.40;24.30;;;;;;4958594;28;20212;-90
2023/09/06 12:31:42;;;;;;;6.18;4.57;;;25.50;23.50;;;;;;4969650;28;20261;-91
2023/09/06 12:34:35;;;;;;;5.72;4.05;;;25.70;21.70;;;;;;4959109;28;20688;-93
2023/09/06 12:39:37;;;;;;;4.57;4.18;;;25.50;21.00;;;;;;5008868;23;20250;-91
2023/09/06 12:42:07;;;;;;;4.85;4.38;;;25.60;20.90;;;;;;4980549;28;20280;-92
2023/09/06 12:44:33;;;;;;;4.60;4.03;;;25.70;20.00;;;;;;4973930;28;20211;-91
2023/09/06 12:47:17;;;;;;;5.93;4.60;;;25.60;21.20;;;;;;4966865;28;20203;-92
2023/09/06 12:49:45;;;;;;;4.55;4.00;;;25.60;20.40;;;;;;4971637;28;20208;-91
2023/09/06 12:52:13;;;;;;;4.90;4.15;;;25.60;19.90;;;;;;4978588;28;20231;-92
2023/09/06 12:54:40;;;;;;;4.38;3.97;;;25.60;20.30;;;;;;4979453;28;20583;-94
2023/09/06 13:05:08;;;;;;;4.57;3.75;;;25.60;18.70;;;;;;5054623;23;20240;-94
2023/09/06 13:07:56;;;;;;;4.28;3.88;;;25.60;18.80;;;;;;4968240;28;20248;-95
2023/09/06 13:10:23;;;;;;;4.90;3.80;;;25.50;17.90;;;;;;4965927;29;20669;-94
2023/09/06 13:12:52;;;;;;;6.43;4.20;;;25.50;18.10;;;;;;4963000;28;20255;-93
2023/09/06 13:15:19;;;;;;;4.88;4.05;;;25.60;18.00;;;;;;4958628;29;20202;-94
2023/09/06 13:20:21;;;;;;;4.35;3.95;;;25.50;18.70;;;;;;5020367;23;20302;-93
2023/09/06 13:22:48;;;;;;;5.07;3.70;;;25.40;20.00;;;;;;4953065;28;20285;-92
2023/09/06 13:25:15;;;;;;;4.75;3.75;;;25.50;18.60;;;;;;4958060;29;20205;-90
2023/09/06 13:27:43;;;;;;;7.53;4.00;;;25.40;19.10;;;;;;4959774;29;20194;-91
2023/09/06 13:30:12;;;;;;;4.45;4.05;;;25.50;19.30;;;;;;4957612;29;20253;-90
2023/09/06 13:32:40;;;;;;;4.53;4.10;;;25.60;18.40;;;;;;4951037;28;20682;-91
2023/09/06 13:35:08;;;;;;;4.03;3.60;;;25.50;18.70;;;;;;4953792;29;20566;-91
2023/09/06 13:37:34;;;;;;;8.30;4.00;;;25.50;18.10;;;;;;4953698;28;20205;-91
2023/09/06 13:40:02;;;;;;;5.03;3.97;;;25.50;21.00;;;;;;4952499;29;20203;-91
2023/09/06 13:42:29;;;;;;;4.35;3.80;;;25.50;17.80;;;;;;4949923;28;20205;-91
2023/09/06 13:44:56;;;;;;;5.18;4.03;;;25.40;18.20;;;;;;4948371;28;20201;-90
2023/09/06 13:47:25;;;;;;;6.32;3.72;;;25.50;18.60;;;;;;4948753;29;20280;-90
2023/09/06 13:49:51;;;;;;;3.80;3.40;;;25.50;18.60;;;;;;4954318;28;20205;-91
2023/09/06 13:52:19;;;;;;;3.80;3.40;;;25.50;18.20;;;;;;4937691;28;20329;-91
2023/09/06 13:54:45;;;;;;;4.80;3.80;;;25.60;17.40;;;;;;4929353;29;20199;-91
2023/09/06 13:57:13;;;;;;;4.38;3.97;;;25.60;16.60;;;;;;4930021;29;20214;-91
2023/09/06 13:59:41;;;;;;;4.05;3.63;;;25.60;17.40;;;;;;4938450;29;20273;-90
2023/09/06 14:02:08;;;;;;;3.95;3.65;;;25.50;17.00;;;;;;4931561;29;20213;-92
2023/09/06 14:04:37;;;;;;;4.95;3.63;;;25.50;17.70;;;;;;4929576;29;20214;-92
2023/09/06 14:07:04;;;;;;;6.65;3.70;;;25.50;17.30;;;;;;4938035;29;20664;-92
2023/09/06 14:09:31;;;;;;;4.78;3.30;;;25.50;17.50;;;;;;4941193;29;20309;-92
2023/09/06 14:12:05;;;;;;;5.15;4.20;;;25.60;17.10;;;;;;4946196;29;20253;-92
2023/09/06 14:14:57;;;;;;;4.97;3.60;;;25.60;17.50;;;;;;5435690;23;20217;-89
2023/09/06 14:17:31;;;;;;;5.45;3.25;;;25.50;17.60;;;;;;5017290;23;20248;-92
2023/09/06 14:20:00;;;;;;;4.13;3.67;;;25.50;17.80;;;;;;4973238;28;20282;-89
2023/09/06 14:22:28;;;;;;;5.47;3.50;;;25.40;16.90;;;;;;4979707;28;20565;-92
2023/09/06 14:24:55;;;;;;;6.90;3.80;;;25.50;16.90;;;;;;4974062;28;20256;-91
2023/09/06 14:27:27;;;;;;;4.40;3.30;;;25.50;17.30;;;;;;4982862;28;20196;-92
2023/09/06 14:30:15;;;;;;;3.50;3.20;;;25.50;17.20;;;;;;5332917;23;20255;-92
2023/09/06 14:32:48;;;;;;;4.90;3.22;;;25.50;16.30;;;;;;4983815;28;20216;-91
2023/09/06 14:35:17;;;;;;;4.35;3.25;;;25.50;15.80;;;;;;4980334;28;20200;-92
2023/09/06 14:37:44;;;;;;;4.03;3.45;;;25.50;16.50;;;;;;4965686;28;20205;-90
2023/09/06 14:40:12;;;;;;;3.58;3.17;;;25.40;17.00;;;;;;4972995;28;20201;-91
2023/09/06 14:42:39;;;;;;;3.45;3.08;;;25.40;15.00;;;;;;4987371;28;20212;-93
2023/09/06 14:45:13;;;;;;;3.58;3.28;;;25.40;15.60;;;;;;4990080;28;20256;-92
2023/09/06 14:56:38;;;;;;;5.30;3.10;;;25.30;14.30;;;;;;5178841;23;20220;-91
2023/09/06 14:59:05;;;;;;;6.38;3.83;;;25.30;14.40;;;;;;5002512;23;20201;-90
2023/09/06 15:01:33;;;;;;;2.78;2.58;;;25.20;16.10;;;;;;5317310;23;20244;-92
2023/09/06 15:06:38;;;;;;;3.30;3.00;;;25.30;15.90;;;;;;5183323;23;20242;-92
2023/09/06 15:22:12;;;;;;;4.38;3.58;;;25.10;16.70;;;;;;5862549;23;21201;-93
2023/09/06 15:27:26;;;;;;;3.30;3.00;;;25.10;17.80;;;;;;5263296;23;20237;-87
2023/09/06 15:29:53;;;;;;;4.13;3.13;;;25.10;16.90;;;;;;4957419;28;20232;-90
2023/09/06 15:32:20;;;;;;;3.58;3.00;;;25.00;17.80;;;;;;4967101;28;20217;-91
2023/09/06 15:34:46;;;;;;;3.17;2.70;;;24.80;17.80;;;;;;4969588;28;20201;-90
2023/09/06 16:16:20;;;;;;;3.88;2.40;;;24.00;18.20;;;;;;5390931;23;20236;-90
2023/09/06 16:21:32;;;;;;;5.13;2.50;;;24.00;19.10;;;;;;4983297;28;20211;-91
2023/09/06 16:24:03;;;;;;;2.90;2.70;;;24.00;19.30;;;;;;4968607;28;20224;-90
2023/09/06 16:26:33;;;;;;;2.55;2.35;;;23.90;19.60;;;;;;4966919;28;20201;-92
2023/09/06 16:29:00;;;;;;;4.00;2.55;;;23.90;19.80;;;;;;4974914;28;20208;-92
2023/09/06 16:31:34;;;;;;;2.38;2.17;;;23.80;20.00;;;;;;4969889;28;20210;-90
2023/09/06 16:34:03;;;;;;;2.70;2.50;;;23.80;19.80;;;;;;4945759;28;20248;-91
2023/09/06 16:36:30;;;;;;;2.75;2.33;;;23.70;20.10;;;;;;4953538;28;20248;-91
2023/09/06 16:38:58;;;;;;;5.22;3.05;;;23.70;20.30;;;;;;4978102;23;20184;-91
2023/09/06 16:41:25;;;;;;;2.20;2.00;;;23.50;20.30;;;;;;4986191;28;20208;-92
2023/09/06 16:43:51;;;;;;;3.88;2.50;;;23.50;20.80;;;;;;4984335;28;20200;-91
2023/09/06 16:46:19;;;;;;;4.13;2.22;;;23.40;20.90;;;;;;4984458;28;20218;-92
2023/09/06 16:48:48;;;;;;;3.17;2.53;;;23.30;21.30;;;;;;4964908;28;20197;-94
2023/09/06 16:51:23;;;;;;;2.78;2.50;;;23.30;20.60;;;;;;4963062;28;20229;-91
2023/09/06 16:56:36;;;;;;;3.75;2.30;;;23.10;20.30;;;;;;4974150;28;20204;-90
2023/09/06 16:59:05;;;;;;;2.70;2.50;;;23.00;20.50;;;;;;4972574;28;20204;-91
2023/09/06 17:01:32;;;;;;;2.65;2.45;;;22.90;21.20;;;;;;4976115;28;20205;-92
2023/09/06 17:04:00;;;;;;;2.47;2.28;;;22.90;19.90;;;;;;4971823;28;20217;-92
2023/09/06 17:06:33;;;;;;;3.13;2.35;;;22.80;19.80;;;;;;4966552;28;20208;-92
2023/09/06 17:09:00;;;;;;;3.13;2.03;;;22.70;20.00;;;;;;4981467;28;20200;-93
2023/09/06 17:11:29;;;;;;;3.63;2.40;;;22.60;20.60;;;;;;4981473;28;20189;-93
2023/09/06 17:17:39;;;;;;;2.40;2.20;;;22.40;21.20;;;;;;4980622;28;20180;-94
2023/09/06 17:20:57;;;;;;;2.97;2.10;;;22.30;22.20;;;;;;4987633;28;20275;-93
2023/09/06 17:31:37;;;;;;;2.00;1.90;;;21.70;26.40;;;;;;4947190;29;20217;-92
2023/09/06 17:34:05;;;;;;;3.10;2.20;;;21.50;25.70;;;;;;4963420;29;20229;-94
2023/09/06 17:47:38;;;;;;;3.05;2.75;;;20.90;32.80;;;;;;4979424;28;20200;-93
2023/09/06 17:53:09;;;;;;;4.30;3.17;;;20.70;36.70;;;;;;4972177;28;20220;-92
2023/09/06 18:12:51;;;;;;;4.57;2.90;;;19.70;55.60;;;;;;4953899;29;20221;-90
2023/09/06 18:15:20;;;;;;;3.28;2.63;;;19.60;58.60;;;;;;4925430;29;20197;-89
2023/09/06 18:17:51;;;;;;;4.85;2.70;;;19.50;60.80;;;;;;4956098;29;20198;-90
2023/09/06 18:20:18;;;;;;;6.45;2.83;;;19.50;64.40;;;;;;4956876;29;20552;-88
2023/09/06 18:22:46;;;;;;;3.95;3.33;;;19.40;66.80;;;;;;4956927;29;20205;-89
2023/09/06 18:25:33;;;;;;;4.15;3.30;;;19.20;69.50;;;;;;4943852;28;20209;-89
2023/09/06 18:28:34;;;;;;;4.30;3.00;;;19.10;72.40;;;;;;4956251;28;20215;-88
2023/09/06 18:31:05;;;;;;;5.47;3.20;;;19.10;75.00;;;;;;4956371;29;20197;-88
2023/09/06 18:37:00;;;;;;;4.90;3.40;;;18.90;77.20;;;;;;4956353;29;20164;-88
2023/09/06 18:49:45;;;;;;;4.55;3.25;;;18.70;79.90;;;;;;5236450;23;20209;-91
2023/09/06 18:52:13;;;;;;;4.35;3.05;;;18.80;80.00;;;;;;4971051;28;20240;-92
2023/09/06 18:55:01;;;;;;;3.50;3.20;;;18.70;79.70;;;;;;4976241;28;20665;-95
2023/09/06 19:03:30;;;;;;;3.33;3.03;;;18.70;77.80;;;;;;4945023;29;20577;-95
2023/09/06 19:08:56;;;;;;;6.63;3.17;;;18.70;78.10;;;;;;4914057;28;20305;-94
2023/09/06 19:18:39;;;;;;;5.40;3.85;;;18.60;79.80;;;;;;4881957;29;20212;-95
2023/09/06 19:21:06;;;;;;;3.88;3.47;;;18.50;79.80;;;;;;4911707;28;20229;-96
2023/09/06 19:32:01;;;;;;;3.90;3.55;;;18.30;81.80;;;;;;4957673;28;20259;-94
2023/09/06 19:37:21;;;;;;;4.53;3.35;;;18.20;83.50;;;;;;4965343;29;20285;-94
2023/09/06 19:46:02;;;;;;;4.05;3.65;;;18.10;85.00;;;;;;4918743;29;20235;-93
2023/09/06 19:48:34;;;;;;;5.93;3.80;;;18.00;85.20;;;;;;4979082;28;20272;-93
2023/09/06 19:53:41;;;;;;;6.22;3.70;;;18.00;85.40;;;;;;4956235;28;20320;-93
2023/09/06 19:56:16;;;;;;;4.88;3.40;;;18.00;85.60;;;;;;4975076;28;20202;-94
2023/09/06 19:58:43;;;;;;;5.22;3.30;;;18.00;85.50;;;;;;4965818;28;20202;-93
2023/09/06 20:01:10;;;;;;;6.50;3.45;;;18.00;85.60;;;;;;4969086;28;20259;-93
2023/09/06 20:03:38;;;;;;;5.60;3.33;;;18.00;86.00;;;;;;4969847;28;20204;-93
2023/09/06 20:06:07;;;;;;;6.68;3.78;;;18.00;86.20;;;;;;4952003;28;20205;-93
2023/09/06 20:08:34;;;;;;;7.05;3.65;;;17.90;86.30;;;;;;4971220;28;20931;-93
2023/09/06 20:11:04;;;;;;;6.82;3.90;;;17.90;86.80;;;;;;4977290;28;20197;-94
2023/09/06 20:16:58;;;;;;;5.75;3.72;;;17.80;88.30;;;;;;4970645;28;20287;-95
2023/09/06 20:19:26;;;;;;;5.63;3.75;;;17.70;88.70;;;;;;4970387;28;20680;-94
2023/09/06 20:24:54;;;;;;;7.63;4.13;;;17.70;89.70;;;;;;4966242;28;20217;-94
2023/09/06 20:27:21;;;;;;;5.32;3.78;;;17.60;90.10;;;;;;4983014;28;20210;-92
2023/09/06 20:32:42;;;;;;;5.72;4.40;;;17.50;90.40;;;;;;4968353;28;20203;-93
2023/09/06 20:35:09;;;;;;;8.20;4.25;;;17.40;90.60;;;;;;4978542;28;20232;-93
2023/09/06 20:37:36;;;;;;;5.60;4.32;;;17.40;90.60;;;;;;4987531;28;20211;-93
2023/09/06 20:40:03;;;;;;;7.07;4.25;;;17.40;90.80;;;;;;4998409;28;20269;-94